Time;durP1;ratioP1;P1;durP2;ratioP2;P2;SDS_P1;SDS_P2;PMS_P1;PMS_P2;Temp;Humidity;BMP_temperature;BMP_pressure;BME280_temperature;BME280_humidity;BME280_pressure;Samples;Min_cycle;Max_cycle;Signal;HPM_P1;HPM_P2
2023/01/27 04:01:00;;;;;;;4.20;1.75;;;4.30;99.90;;;;;;6206438;22;20649;-78
2023/01/27 04:09:01;;;;;;;3.42;1.90;;;4.20;99.90;;;;;;6275710;22;20011;-79
2023/01/27 04:14:13;;;;;;;7.55;1.80;;;4.20;99.90;;;;;;6275811;22;20020;-78
2023/01/27 04:16:39;;;;;;;5.50;1.88;;;4.10;99.90;;;;;;6275303;22;20095;-77
2023/01/27 04:19:07;;;;;;;5.35;1.90;;;4.10;99.90;;;;;;6275197;22;20020;-75
2023/01/27 04:21:33;;;;;;;6.30;2.25;;;4.10;99.90;;;;;;6275232;22;20047;-80
2023/01/27 04:23:59;;;;;;;5.43;2.10;;;4.10;99.90;;;;;;6278116;22;20308;-79
2023/01/27 04:26:31;;;;;;;4.40;1.70;;;4.10;99.90;;;;;;6275231;22;20019;-75
2023/01/27 04:28:58;;;;;;;5.00;1.90;;;4.10;99.90;;;;;;6275122;22;20019;-77
2023/01/27 04:31:25;;;;;;;5.53;1.40;;;4.10;99.90;;;;;;6275073;22;20012;-77
2023/01/27 04:33:50;;;;;;;4.75;1.73;;;4.10;99.90;;;;;;6277022;22;20012;-78
2023/01/27 04:36:16;;;;;;;3.10;1.50;;;4.10;99.90;;;;;;6275071;22;20345;-79
2023/01/27 04:38:41;;;;;;;2.58;1.40;;;4.10;99.90;;;;;;6276649;22;20015;-76
2023/01/27 04:41:07;;;;;;;4.13;1.55;;;4.10;99.90;;;;;;6275080;22;20008;-80
2023/01/27 04:43:33;;;;;;;3.65;1.48;;;4.00;99.90;;;;;;6274845;22;20338;-77
2023/01/27 04:45:59;;;;;;;4.82;1.60;;;4.10;99.90;;;;;;6275029;22;20016;-78
2023/01/27 04:48:24;;;;;;;4.25;1.33;;;4.10;99.90;;;;;;6276914;22;20012;-79
2023/01/27 04:50:50;;;;;;;3.85;1.30;;;4.10;99.90;;;;;;6277263;22;20014;-76
2023/01/27 04:53:15;;;;;;;6.47;1.70;;;4.10;99.90;;;;;;6276703;22;20137;-78
2023/01/27 04:55:46;;;;;;;4.70;1.40;;;4.10;99.90;;;;;;6274972;22;20012;-76
2023/01/27 04:58:12;;;;;;;5.40;1.60;;;4.10;99.90;;;;;;6276536;22;20440;-81
2023/01/27 05:00:38;;;;;;;4.57;1.35;;;4.10;99.90;;;;;;6274512;22;20444;-76
2023/01/27 05:03:04;;;;;;;3.38;1.50;;;4.10;99.90;;;;;;6274759;22;20091;-76
2023/01/27 05:05:31;;;;;;;8.63;2.30;;;4.10;99.90;;;;;;6274943;22;20014;-81
2023/01/27 05:08:05;;;;;;;6.30;1.42;;;4.10;99.90;;;;;;6275698;22;20073;-77
2023/01/27 05:10:31;;;;;;;5.30;1.30;;;4.10;99.90;;;;;;6274654;22;20631;-79
2023/01/27 05:12:57;;;;;;;6.25;1.92;;;4.10;99.90;;;;;;6275162;22;20021;-78
2023/01/27 05:15:24;;;;;;;6.32;1.65;;;4.00;99.90;;;;;;6274837;22;20019;-77
2023/01/27 05:17:49;;;;;;;5.30;1.83;;;4.00;99.90;;;;;;6276899;22;20015;-78
2023/01/27 05:20:15;;;;;;;4.97;1.70;;;4.00;99.90;;;;;;6274610;22;20018;-78
2023/01/27 05:22:41;;;;;;;5.25;1.60;;;4.00;99.90;;;;;;6275102;22;20310;-78
2023/01/27 05:25:07;;;;;;;4.82;1.70;;;4.00;99.90;;;;;;6274681;22;20011;-77
2023/01/27 05:27:33;;;;;;;4.75;1.50;;;4.00;99.90;;;;;;6249755;22;20014;-79
2023/01/27 05:29:59;;;;;;;4.68;1.80;;;4.00;99.90;;;;;;6276166;22;20008;-76
2023/01/27 05:32:24;;;;;;;4.15;1.70;;;4.00;99.90;;;;;;6276466;22;20294;-79
2023/01/27 05:34:50;;;;;;;5.65;1.50;;;4.00;99.90;;;;;;6249195;22;20008;-78
2023/01/27 05:37:16;;;;;;;6.32;1.65;;;4.00;99.90;;;;;;6274522;22;20073;-78
2023/01/27 05:39:41;;;;;;;4.32;1.85;;;3.90;99.90;;;;;;6276397;22;20365;-77
2023/01/27 05:42:07;;;;;;;5.43;2.20;;;3.90;99.90;;;;;;6249015;22;20015;-76
2023/01/27 05:44:33;;;;;;;5.95;1.95;;;3.90;99.90;;;;;;6274459;22;20019;-76
2023/01/27 05:46:58;;;;;;;5.85;2.72;;;3.90;99.90;;;;;;6274634;22;20012;-75
2023/01/27 05:49:24;;;;;;;3.05;1.90;;;3.90;99.90;;;;;;6274474;22;20016;-77
2023/01/27 05:51:49;;;;;;;5.32;2.10;;;3.90;99.90;;;;;;6274480;22;20066;-77
2023/01/27 05:54:15;;;;;;;6.10;2.10;;;3.90;99.90;;;;;;6274483;22;20015;-78
2023/01/27 05:56:41;;;;;;;6.78;2.22;;;3.90;99.90;;;;;;6277918;22;20047;-80
2023/01/27 05:59:06;;;;;;;6.63;2.10;;;3.90;99.90;;;;;;6278345;22;20015;-76
2023/01/27 06:01:33;;;;;;;5.63;1.92;;;3.90;99.90;;;;;;6277796;22;20341;-76
2023/01/27 06:04:00;;;;;;;3.40;2.00;;;3.90;99.90;;;;;;6277217;22;20087;-76
2023/01/27 06:06:27;;;;;;;5.18;1.92;;;3.90;99.90;;;;;;6275256;22;20376;-79
2023/01/27 06:08:53;;;;;;;6.13;1.90;;;3.90;99.90;;;;;;6277062;22;20012;-78
2023/01/27 06:11:21;;;;;;;6.22;2.03;;;3.90;99.90;;;;;;6276750;22;20371;-75
2023/01/27 06:13:47;;;;;;;4.82;2.13;;;3.90;99.90;;;;;;6276978;22;20012;-78
2023/01/27 06:16:16;;;;;;;8.20;2.40;;;3.90;99.90;;;;;;6277189;22;20012;-77
2023/01/27 06:18:43;;;;;;;5.55;2.53;;;3.90;99.90;;;;;;6278765;22;20011;-79
2023/01/27 06:21:10;;;;;;;8.05;2.60;;;3.90;99.90;;;;;;6276710;22;20016;-77
2023/01/27 06:23:37;;;;;;;6.05;2.85;;;3.90;99.90;;;;;;6276588;22;20019;-76
2023/01/27 06:26:08;;;;;;;6.68;2.92;;;3.90;99.90;;;;;;6276769;22;20086;-75
2023/01/27 06:28:37;;;;;;;5.80;2.45;;;3.90;99.90;;;;;;6250761;22;20015;-75
2023/01/27 06:31:16;;;;;;;9.02;2.58;;;3.90;99.90;;;;;;6276143;22;20444;-79
2023/01/27 06:33:42;;;;;;;4.50;2.50;;;3.90;99.90;;;;;;6277348;22;20023;-77
2023/01/27 06:36:10;;;;;;;5.55;2.70;;;3.80;99.90;;;;;;6276084;22;20016;-78
2023/01/27 06:38:36;;;;;;;4.10;2.35;;;3.80;99.90;;;;;;6277029;22;20015;-77
2023/01/27 06:41:02;;;;;;;6.75;2.88;;;3.80;99.90;;;;;;6276080;22;20054;-79
2023/01/27 06:43:28;;;;;;;6.82;2.70;;;3.80;99.90;;;;;;6275849;22;20007;-78
2023/01/27 06:45:56;;;;;;;9.65;2.83;;;3.80;99.90;;;;;;6275917;22;20015;-76
2023/01/27 06:48:22;;;;;;;7.82;2.58;;;3.90;99.90;;;;;;6276030;22;20078;-78
2023/01/27 06:50:48;;;;;;;5.93;2.40;;;3.80;99.90;;;;;;6276015;22;20018;-80
2023/01/27 06:53:14;;;;;;;7.88;2.67;;;3.90;99.90;;;;;;6275971;22;20016;-76
2023/01/27 06:55:43;;;;;;;6.53;2.60;;;3.80;99.90;;;;;;6275897;22;20019;-77
2023/01/27 06:58:10;;;;;;;11.60;2.70;;;3.80;99.90;;;;;;6275887;22;20047;-76
2023/01/27 07:00:37;;;;;;;4.97;2.40;;;3.80;99.90;;;;;;6277589;22;20074;-78
2023/01/27 07:03:03;;;;;;;4.85;2.88;;;3.80;99.90;;;;;;6276026;22;20048;-76
2023/01/27 07:05:29;;;;;;;5.30;2.40;;;3.80;99.90;;;;;;6275920;22;20011;-77
2023/01/27 07:07:54;;;;;;;6.30;2.70;;;3.80;99.90;;;;;;6275677;22;20058;-77
2023/01/27 07:10:20;;;;;;;4.53;2.60;;;3.80;99.90;;;;;;6275737;22;20007;-77
2023/01/27 07:12:46;;;;;;;6.97;3.00;;;3.80;99.90;;;;;;6275877;22;20007;-76
2023/01/27 07:15:11;;;;;;;5.10;2.53;;;3.80;99.90;;;;;;6275776;22;20012;-76
2023/01/27 07:17:37;;;;;;;10.75;2.78;;;3.80;99.90;;;;;;6275775;22;20011;-77
2023/01/27 07:20:04;;;;;;;9.88;3.10;;;3.80;99.90;;;;;;6275742;22;20441;-78
2023/01/27 07:22:30;;;;;;;6.68;2.55;;;3.80;99.90;;;;;;6277491;22;20083;-77
2023/01/27 07:24:55;;;;;;;5.70;2.67;;;3.80;99.90;;;;;;6275951;22;20058;-78
2023/01/27 07:27:22;;;;;;;6.53;2.70;;;3.80;99.90;;;;;;6279283;22;20014;-80
2023/01/27 07:29:48;;;;;;;6.05;2.80;;;3.80;99.90;;;;;;6274986;22;20016;-76
2023/01/27 07:32:14;;;;;;;6.63;2.72;;;3.80;99.90;;;;;;6276520;22;20007;-79
2023/01/27 07:34:39;;;;;;;9.05;2.50;;;3.80;99.90;;;;;;6275292;22;20445;-76
2023/01/27 07:37:05;;;;;;;6.50;2.70;;;3.80;99.90;;;;;;6277682;22;20050;-76
2023/01/27 07:39:32;;;;;;;4.97;2.50;;;3.80;99.90;;;;;;6277176;22;20049;-76
2023/01/27 07:42:00;;;;;;;7.38;2.60;;;3.80;99.90;;;;;;6275304;22;20445;-77
2023/01/27 07:44:26;;;;;;;6.30;2.30;;;3.80;99.90;;;;;;6277326;22;20061;-76
2023/01/27 07:46:53;;;;;;;7.22;2.50;;;3.80;99.90;;;;;;6277434;22;20012;-79
2023/01/27 07:49:18;;;;;;;8.05;2.10;;;3.90;99.90;;;;;;6277131;22;20065;-76
2023/01/27 07:51:44;;;;;;;6.45;1.98;;;3.80;99.90;;;;;;6276932;22;20015;-78
2023/01/27 07:54:11;;;;;;;4.78;2.10;;;3.80;99.90;;;;;;6275461;22;20016;-78
2023/01/27 07:56:37;;;;;;;5.07;2.08;;;3.80;99.90;;;;;;6275387;22;20016;-76
2023/01/27 07:59:02;;;;;;;4.55;2.20;;;3.80;99.90;;;;;;6277237;22;20026;-78
2023/01/27 08:01:28;;;;;;;6.47;2.45;;;3.80;99.90;;;;;;6275183;22;20069;-78
2023/01/27 08:03:54;;;;;;;5.88;2.28;;;3.80;99.90;;;;;;6249796;22;20016;-76
2023/01/27 08:06:20;;;;;;;4.57;1.92;;;3.80;99.90;;;;;;6275832;22;20090;-77
2023/01/27 08:08:45;;;;;;;3.42;1.85;;;3.80;99.90;;;;;;6276881;22;20008;-77
2023/01/27 08:11:13;;;;;;;5.20;2.20;;;3.80;99.90;;;;;;6275249;22;20441;-78
2023/01/27 08:13:39;;;;;;;3.92;1.92;;;3.80;99.90;;;;;;6277168;22;20016;-77
2023/01/27 08:16:10;;;;;;;3.30;1.75;;;3.80;99.90;;;;;;6249655;22;20078;-76
2023/01/27 08:18:36;;;;;;;5.05;1.90;;;3.80;99.90;;;;;;6276773;22;20055;-75
2023/01/27 08:21:04;;;;;;;3.83;2.40;;;3.80;99.90;;;;;;6275091;22;20019;-76
2023/01/27 08:23:31;;;;;;;8.15;2.40;;;3.90;99.90;;;;;;6275098;22;20456;-78
2023/01/27 08:26:00;;;;;;;4.03;2.13;;;3.90;99.90;;;;;;6249590;22;20463;-77
2023/01/27 08:28:27;;;;;;;4.47;1.80;;;3.90;99.90;;;;;;6276771;22;20460;-77
2023/01/27 08:30:53;;;;;;;3.17;1.73;;;3.90;99.90;;;;;;6275489;22;20015;-77
2023/01/27 08:33:20;;;;;;;8.68;2.10;;;3.90;99.90;;;;;;6275112;22;20090;-77
2023/01/27 08:35:46;;;;;;;6.07;2.15;;;3.90;99.90;;;;;;6276302;22;20037;-78
2023/01/27 08:38:14;;;;;;;3.92;2.20;;;4.00;99.90;;;;;;6276975;22;20008;-76
2023/01/27 08:40:40;;;;;;;10.25;2.33;;;4.00;99.90;;;;;;6249638;22;20087;-76
2023/01/27 08:43:07;;;;;;;7.30;1.90;;;4.00;99.90;;;;;;6249431;22;20023;-78
2023/01/27 08:45:33;;;;;;;5.82;1.80;;;4.10;99.90;;;;;;6274986;22;20130;-77
2023/01/27 08:47:59;;;;;;;5.35;2.10;;;4.10;99.90;;;;;;6274925;22;20441;-78
2023/01/27 08:50:25;;;;;;;6.13;1.90;;;4.10;99.90;;;;;;6249168;22;20054;-77
2023/01/27 08:52:51;;;;;;;7.75;2.17;;;4.10;99.90;;;;;;6277396;22;20022;-78
2023/01/27 08:55:16;;;;;;;5.07;2.13;;;4.10;99.90;;;;;;6275252;22;20058;-76
2023/01/27 08:57:42;;;;;;;9.23;2.60;;;4.20;99.90;;;;;;6249857;22;20018;-77
2023/01/27 09:00:12;;;;;;;4.45;1.58;;;4.20;99.90;;;;;;6249737;22;20341;-76
2023/01/27 09:02:38;;;;;;;5.65;1.90;;;4.20;99.90;;;;;;6275290;22;20022;-76
2023/01/27 09:05:04;;;;;;;5.25;1.83;;;4.30;99.90;;;;;;6274967;22;20345;-76
2023/01/27 09:07:30;;;;;;;7.47;1.88;;;4.30;99.90;;;;;;6274770;22;20130;-76
2023/01/27 09:09:55;;;;;;;4.88;1.98;;;4.30;99.90;;;;;;6273239;22;20011;-75
2023/01/27 09:12:21;;;;;;;7.28;1.65;;;4.30;99.90;;;;;;6274885;22;20020;-74
2023/01/27 09:14:47;;;;;;;8.38;2.10;;;4.30;99.90;;;;;;6274639;22;20022;-76
2023/01/27 09:17:15;;;;;;;6.72;2.20;;;4.40;99.90;;;;;;6274816;22;20011;-75
2023/01/27 09:19:41;;;;;;;6.97;2.60;;;4.40;99.90;;;;;;6277338;22;20409;-76
2023/01/27 09:22:07;;;;;;;4.60;1.90;;;4.40;99.90;;;;;;6276255;22;20065;-78
2023/01/27 09:24:32;;;;;;;5.35;2.03;;;4.40;99.90;;;;;;6274448;22;20020;-77
2023/01/27 09:26:58;;;;;;;6.25;2.05;;;4.50;99.90;;;;;;6274524;22;20405;-77
2023/01/27 09:29:23;;;;;;;5.13;2.05;;;4.50;99.90;;;;;;6274608;22;20083;-75
2023/01/27 09:31:49;;;;;;;5.18;2.25;;;4.50;99.90;;;;;;6276493;22;20083;-76
2023/01/27 09:34:16;;;;;;;8.05;2.10;;;4.50;99.90;;;;;;6276029;22;20453;-74
2023/01/27 09:36:48;;;;;;;10.30;2.60;;;4.60;99.90;;;;;;6276496;22;20024;-76
2023/01/27 09:39:16;;;;;;;5.72;2.47;;;4.60;99.90;;;;;;6274674;22;20019;-79
2023/01/27 09:42:21;;;;;;;8.98;3.05;;;4.60;99.90;;;;;;6274626;22;20457;-76
2023/01/27 09:44:55;;;;;;;7.22;3.13;;;4.70;99.90;;;;;;6276476;22;20015;-76
2023/01/27 09:47:35;;;;;;;9.73;3.47;;;4.70;99.90;;;;;;6249059;22;20138;-75
2023/01/27 09:50:31;;;;;;;7.18;2.88;;;4.70;99.90;;;;;;6276355;22;20015;-77
2023/01/27 09:53:21;;;;;;;7.30;3.08;;;4.70;99.90;;;;;;6274472;22;20022;-77
2023/01/27 09:55:53;;;;;;;10.40;3.10;;;4.80;99.90;;;;;;6274542;22;20048;-75
2023/01/27 09:58:24;;;;;;;8.00;2.83;;;4.80;99.90;;;;;;6248994;22;20038;-75
2023/01/27 10:00:59;;;;;;;14.73;4.47;;;4.80;99.90;;;;;;6248822;22;20011;-77
2023/01/27 10:03:36;;;;;;;8.73;3.10;;;4.80;99.90;;;;;;6274309;22;20023;-75
2023/01/27 10:06:26;;;;;;;6.75;2.85;;;4.90;99.90;;;;;;6275308;22;20093;-75
2023/01/27 10:09:08;;;;;;;8.23;3.20;;;5.00;99.90;;;;;;6276666;22;20014;-76
2023/01/27 10:11:42;;;;;;;6.03;2.50;;;5.00;99.90;;;;;;6274765;22;20031;-76
2023/01/27 10:14:18;;;;;;;6.97;3.03;;;5.00;99.90;;;;;;6274333;22;20098;-74
2023/01/27 10:17:03;;;;;;;5.68;2.72;;;5.00;99.90;;;;;;6274386;22;20085;-75
2023/01/27 10:20:00;;;;;;;5.15;2.30;;;5.00;99.90;;;;;;6274334;22;20352;-76
2023/01/27 10:22:37;;;;;;;8.00;2.53;;;5.00;99.90;;;;;;6274318;22;20023;-75
2023/01/27 10:25:08;;;;;;;4.45;2.20;;;5.00;99.90;;;;;;6274767;22;20016;-74
2023/01/27 10:27:36;;;;;;;5.50;2.42;;;5.00;99.90;;;;;;6276016;22;20083;-77
2023/01/27 10:30:10;;;;;;;7.53;2.40;;;5.00;99.90;;;;;;6276241;22;20003;-77
2023/01/27 10:32:41;;;;;;;6.07;2.50;;;5.10;99.90;;;;;;6274266;22;20012;-76
2023/01/27 10:35:08;;;;;;;7.18;2.33;;;5.10;99.90;;;;;;6275772;22;20016;-75
2023/01/27 10:37:50;;;;;;;4.90;2.20;;;5.10;99.90;;;;;;6275856;22;20019;-74
2023/01/27 10:40:35;;;;;;;4.35;1.90;;;5.20;99.90;;;;;;6274158;22;20011;-75
2023/01/27 10:43:10;;;;;;;3.28;1.90;;;5.20;99.90;;;;;;6275554;22;20091;-76
2023/01/27 10:46:11;;;;;;;5.20;1.90;;;5.20;99.90;;;;;;6276127;22;20138;-76
2023/01/27 10:49:00;;;;;;;3.58;1.73;;;5.10;99.90;;;;;;6218635;22;20007;-76
2023/01/27 10:51:32;;;;;;;2.70;1.60;;;5.10;99.90;;;;;;6275900;22;20018;-75
2023/01/27 10:54:04;;;;;;;4.63;2.03;;;5.10;99.90;;;;;;6275878;22;20028;-76
2023/01/27 10:56:40;;;;;;;4.75;2.30;;;5.20;99.90;;;;;;6277559;22;20672;-74
2023/01/27 10:59:24;;;;;;;4.50;2.10;;;5.30;99.90;;;;;;6276060;22;20016;-76
2023/01/27 11:02:04;;;;;;;4.45;1.90;;;5.20;99.90;;;;;;6277617;22;20012;-74
2023/01/27 11:04:54;;;;;;;5.32;1.98;;;5.20;99.90;;;;;;6275847;22;20018;-77
2023/01/27 11:07:22;;;;;;;5.13;1.70;;;5.20;99.90;;;;;;6274995;22;20023;-77
2023/01/27 11:09:58;;;;;;;5.93;1.73;;;5.20;99.90;;;;;;6275766;22;20054;-76
2023/01/27 11:12:36;;;;;;;3.72;1.58;;;5.20;99.90;;;;;;6275694;22;20008;-75
2023/01/27 11:15:19;;;;;;;5.80;1.83;;;5.20;99.90;;;;;;6283695;22;20023;-73
2023/01/27 11:18:07;;;;;;;4.15;1.95;;;5.10;99.90;;;;;;6286434;22;20176;-73
2023/01/27 11:20:38;;;;;;;6.95;1.77;;;5.10;99.90;;;;;;6276311;22;20077;-76
2023/01/27 11:23:06;;;;;;;5.82;1.77;;;5.10;99.90;;;;;;6276413;22;20011;-75
2023/01/27 11:25:35;;;;;;;5.68;2.85;;;5.10;99.90;;;;;;6277470;22;20012;-77
2023/01/27 11:28:09;;;;;;;4.28;1.95;;;5.10;99.90;;;;;;6276310;22;20436;-77
2023/01/27 11:31:02;;;;;;;4.82;1.85;;;5.00;99.90;;;;;;6277663;22;20337;-77
2023/01/27 11:33:51;;;;;;;3.78;1.88;;;5.10;99.90;;;;;;6275686;22;20014;-74
2023/01/27 11:36:16;;;;;;;4.50;2.00;;;5.00;99.90;;;;;;6199354;22;20015;-76
2023/01/27 11:38:42;;;;;;;3.78;1.75;;;5.00;99.90;;;;;;6275722;22;20126;-74
2023/01/27 11:41:09;;;;;;;3.53;2.00;;;5.00;99.90;;;;;;6275609;22;20015;-77
2023/01/27 11:43:37;;;;;;;1.92;1.20;;;5.00;99.90;;;;;;6275386;22;20370;-76
2023/01/27 11:46:06;;;;;;;4.13;1.50;;;5.10;99.90;;;;;;6275680;22;20420;-76
2023/01/27 11:48:44;;;;;;;4.00;1.27;;;5.10;99.90;;;;;;6275467;22;20403;-78
2023/01/27 11:51:19;;;;;;;3.53;1.60;;;5.10;99.90;;;;;;6275381;22;20058;-75
2023/01/27 11:53:50;;;;;;;4.25;1.20;;;5.10;99.90;;;;;;6275365;22;20341;-75
2023/01/27 11:56:18;;;;;;;1.77;0.93;;;5.10;99.90;;;;;;6275685;22;20012;-76
2023/01/27 11:59:16;;;;;;;2.55;1.00;;;5.00;99.90;;;;;;6275655;22;20125;-77
2023/01/27 12:01:54;;;;;;;2.13;1.00;;;5.00;99.90;;;;;;6274916;22;20074;-75
2023/01/27 12:05:00;;;;;;;2.45;1.65;;;4.90;99.90;;;;;;6276122;22;20495;-74
2023/01/27 12:07:43;;;;;;;2.40;1.30;;;4.90;99.90;;;;;;6275208;22;20286;-75
2023/01/27 12:10:37;;;;;;;4.20;1.45;;;5.00;99.90;;;;;;6275555;22;20026;-74
2023/01/27 12:13:16;;;;;;;3.70;1.40;;;5.00;99.90;;;;;;6249642;22;20008;-75
2023/01/27 12:15:53;;;;;;;2.58;1.48;;;4.90;99.90;;;;;;6275238;22;20011;-76
2023/01/27 12:18:19;;;;;;;2.70;1.75;;;5.00;99.90;;;;;;6276818;22;20035;-76
2023/01/27 12:20:49;;;;;;;3.35;1.60;;;4.90;99.90;;;;;;6275151;22;20015;-75
2023/01/27 12:23:29;;;;;;;3.03;1.90;;;5.00;99.90;;;;;;6275661;22;20019;-77
2023/01/27 12:26:04;;;;;;;2.40;1.40;;;5.00;99.90;;;;;;6276961;22;20012;-77
2023/01/27 12:28:44;;;;;;;2.42;1.40;;;5.00;99.90;;;;;;6277156;22;20007;-77
2023/01/27 12:31:11;;;;;;;5.45;2.00;;;4.90;99.90;;;;;;6274934;22;20842;-77
2023/01/27 12:33:41;;;;;;;3.78;2.30;;;4.90;99.90;;;;;;6276509;22;20129;-76
2023/01/27 12:36:22;;;;;;;2.95;2.00;;;4.90;99.90;;;;;;6275084;22;20015;-76
2023/01/27 12:38:57;;;;;;;3.58;1.67;;;4.90;99.90;;;;;;6276956;22;20016;-76
2023/01/27 12:41:30;;;;;;;3.67;1.95;;;4.90;99.90;;;;;;6275799;22;20016;-76
2023/01/27 12:44:01;;;;;;;3.28;2.25;;;4.90;99.90;;;;;;6274733;22;20016;-77
2023/01/27 12:46:28;;;;;;;3.70;2.20;;;4.90;99.90;;;;;;6249362;22;20426;-76
2023/01/27 12:49:13;;;;;;;4.70;2.42;;;4.90;99.90;;;;;;6275173;22;20035;-76
2023/01/27 12:51:40;;;;;;;4.72;2.58;;;4.80;99.90;;;;;;6277068;22;20003;-76
2023/01/27 12:54:20;;;;;;;3.95;2.60;;;4.80;99.90;;;;;;6274783;22;20015;-76
2023/01/27 12:56:46;;;;;;;2.70;1.85;;;4.80;99.90;;;;;;6248912;22;20018;-77
2023/01/27 12:59:15;;;;;;;3.00;1.80;;;4.70;99.90;;;;;;6274883;22;20016;-76
2023/01/27 13:01:43;;;;;;;3.28;2.00;;;4.70;99.90;;;;;;6274359;22;20063;-76
2023/01/27 13:04:19;;;;;;;2.88;1.98;;;4.80;99.90;;;;;;6276177;22;20046;-78
2023/01/27 13:06:54;;;;;;;3.38;2.10;;;4.70;99.90;;;;;;6249295;22;20015;-75
2023/01/27 13:09:19;;;;;;;3.38;2.10;;;4.80;99.90;;;;;;6274703;22;20012;-76
2023/01/27 13:11:45;;;;;;;3.28;1.88;;;4.80;99.90;;;;;;6276523;22;20007;-77
2023/01/27 13:14:16;;;;;;;4.50;2.58;;;4.80;99.90;;;;;;6276707;22;20020;-77
2023/01/27 13:16:50;;;;;;;3.08;2.10;;;4.80;99.90;;;;;;6276331;22;20016;-76
2023/01/27 13:19:17;;;;;;;4.00;2.08;;;4.80;99.90;;;;;;6276247;22;20007;-75
2023/01/27 13:21:47;;;;;;;3.00;1.90;;;4.80;99.90;;;;;;6276602;22;20376;-76
2023/01/27 13:24:22;;;;;;;3.40;2.00;;;4.80;99.90;;;;;;6274598;22;20015;-78
2023/01/27 13:26:50;;;;;;;2.97;1.92;;;4.80;99.90;;;;;;6274770;22;20057;-77
2023/01/27 13:29:23;;;;;;;5.78;2.40;;;4.70;99.90;;;;;;6276492;22;20008;-76
2023/01/27 13:32:14;;;;;;;3.92;2.10;;;4.70;99.90;;;;;;6249129;22;20012;-76
2023/01/27 13:34:51;;;;;;;4.35;2.60;;;4.80;99.90;;;;;;6274313;22;20015;-77
2023/01/27 13:37:40;;;;;;;3.47;2.30;;;4.70;99.90;;;;;;6274806;22;20019;-78
2023/01/27 13:40:42;;;;;;;3.17;2.38;;;4.70;99.90;;;;;;6274580;22;20012;-79
2023/01/27 13:43:32;;;;;;;5.68;2.47;;;4.80;99.90;;;;;;6274092;22;20100;-79
2023/01/27 13:46:13;;;;;;;4.22;2.45;;;4.70;99.90;;;;;;6274526;22;20365;-82
2023/01/27 13:48:53;;;;;;;4.20;2.75;;;4.70;99.90;;;;;;6275114;22;20040;-79
2023/01/27 13:51:26;;;;;;;5.65;2.70;;;4.70;99.90;;;;;;6249612;22;20433;-81
2023/01/27 13:53:58;;;;;;;5.28;2.78;;;4.70;99.90;;;;;;6277423;22;20011;-80
2023/01/27 13:56:42;;;;;;;4.45;2.83;;;4.70;99.90;;;;;;6277187;22;20012;-79
2023/01/27 13:59:18;;;;;;;4.25;2.80;;;4.70;99.90;;;;;;6276671;22;20061;-84
2023/01/27 14:01:51;;;;;;;3.90;2.50;;;4.70;99.90;;;;;;6275157;22;20333;-78
2023/01/27 14:04:29;;;;;;;4.00;2.90;;;4.70;99.90;;;;;;6275459;22;20051;-77
2023/01/27 14:07:37;;;;;;;3.90;2.60;;;4.70;99.90;;;;;;6249578;22;20381;-79
2023/01/27 14:10:34;;;;;;;4.93;2.80;;;4.70;99.90;;;;;;6259705;22;20046;-76
2023/01/27 14:13:38;;;;;;;7.03;3.10;;;4.70;99.90;;;;;;6276435;22;20070;-77
2023/01/27 14:16:06;;;;;;;4.43;3.00;;;4.70;99.90;;;;;;6276664;22;20008;-78
2023/01/27 14:18:38;;;;;;;4.00;2.92;;;4.60;99.90;;;;;;6277418;22;20012;-78
2023/01/27 14:21:13;;;;;;;4.57;3.40;;;4.70;99.90;;;;;;6279095;22;20015;-79
2023/01/27 14:24:04;;;;;;;6.43;3.42;;;4.60;99.90;;;;;;6251373;22;20023;-78
2023/01/27 14:26:36;;;;;;;5.95;3.95;;;4.60;99.90;;;;;;6221084;22;20011;-76
2023/01/27 14:29:14;;;;;;;6.75;3.67;;;4.50;99.90;;;;;;6278624;22;20019;-76
2023/01/27 14:31:51;;;;;;;6.35;3.70;;;4.50;99.90;;;;;;6277008;22;20020;-77
2023/01/27 14:34:35;;;;;;;8.07;3.22;;;4.60;99.90;;;;;;6275145;22;20073;-76
2023/01/27 14:37:23;;;;;;;5.28;3.20;;;4.50;99.90;;;;;;6275538;22;20142;-77
2023/01/27 14:40:03;;;;;;;5.82;3.25;;;4.50;99.90;;;;;;6277307;22;20341;-79
2023/01/27 14:42:59;;;;;;;4.97;3.03;;;4.50;99.90;;;;;;6277077;22;20022;-77
2023/01/27 14:45:34;;;;;;;4.47;3.03;;;4.50;99.90;;;;;;6262709;22;20354;-77
2023/01/27 14:48:20;;;;;;;4.28;3.13;;;4.50;99.90;;;;;;6276382;22;20012;-79
2023/01/27 14:51:10;;;;;;;4.32;2.70;;;4.50;99.90;;;;;;6278137;22;20008;-80
2023/01/27 14:53:36;;;;;;;5.05;3.03;;;4.50;99.90;;;;;;6276771;22;20011;-79
2023/01/27 14:56:19;;;;;;;4.32;3.00;;;4.50;99.90;;;;;;6250922;22;20016;-78
2023/01/27 14:59:07;;;;;;;4.35;2.80;;;4.50;99.90;;;;;;6276700;22;20015;-79
2023/01/27 15:01:53;;;;;;;4.82;3.47;;;4.50;99.90;;;;;;6277351;22;20042;-82
2023/01/27 15:04:44;;;;;;;5.78;3.58;;;4.40;99.90;;;;;;6251095;22;20022;-74
2023/01/27 15:07:20;;;;;;;5.30;2.92;;;4.40;99.90;;;;;;6277938;22;20062;-76
2023/01/27 15:10:16;;;;;;;5.28;3.50;;;4.40;99.90;;;;;;6277806;22;20010;-77
2023/01/27 15:13:05;;;;;;;5.00;3.50;;;4.40;99.90;;;;;;6276292;22;20018;-79
2023/01/27 15:15:55;;;;;;;5.15;3.47;;;4.40;99.90;;;;;;6278475;22;20015;-78
2023/01/27 15:18:42;;;;;;;4.57;3.15;;;4.40;99.90;;;;;;6277688;22;20044;-78
2023/01/27 15:21:35;;;;;;;5.05;3.08;;;4.40;99.90;;;;;;6276068;22;20059;-76
2023/01/27 15:24:28;;;;;;;5.03;3.53;;;4.40;99.90;;;;;;6250385;22;20012;-76
2023/01/27 15:26:55;;;;;;;5.43;3.60;;;4.30;99.90;;;;;;6276110;22;20071;-78
2023/01/27 15:29:25;;;;;;;6.82;3.88;;;4.30;99.90;;;;;;6277493;22;20019;-76
2023/01/27 15:32:21;;;;;;;6.97;4.10;;;4.30;99.90;;;;;;6275950;22;20007;-79
2023/01/27 15:34:51;;;;;;;;;;;4.30;99.90;;;;;;6276207;22;20019;-77
2023/01/27 15:37:24;;;;;;;6.68;3.97;;;4.30;99.90;;;;;;6276156;22;19910;-77
2023/01/27 15:40:14;;;;;;;6.43;3.75;;;4.30;99.90;;;;;;6275680;22;20020;-79
2023/01/27 15:43:00;;;;;;;6.63;4.32;;;4.20;99.90;;;;;;6259221;22;20034;-77
2023/01/27 15:45:33;;;;;;;5.93;3.90;;;4.20;99.90;;;;;;6275560;22;20020;-76
2023/01/27 15:48:09;;;;;;;5.47;3.88;;;4.20;99.90;;;;;;6275341;22;20016;-78
2023/01/27 15:51:05;;;;;;;5.60;3.90;;;4.20;99.90;;;;;;6275445;22;20027;-79
2023/01/27 15:53:41;;;;;;;7.82;4.32;;;4.20;99.90;;;;;;6275490;22;20015;-77
2023/01/27 15:56:07;;;;;;;5.60;3.60;;;4.20;99.90;;;;;;6277665;22;20016;-76
2023/01/27 15:58:39;;;;;;;6.60;3.85;;;4.10;99.90;;;;;;6275655;22;20060;-78
2023/01/27 16:01:29;;;;;;;5.43;3.88;;;4.10;99.90;;;;;;6275347;22;20477;-78
2023/01/27 16:04:15;;;;;;;5.70;3.78;;;4.10;99.90;;;;;;6277455;22;20015;-77
2023/01/27 16:07:02;;;;;;;5.93;3.92;;;4.10;99.90;;;;;;6275527;22;20011;-77
2023/01/27 16:09:37;;;;;;;5.88;3.92;;;4.10;99.90;;;;;;6283104;22;20057;-75
2023/01/27 16:12:22;;;;;;;6.22;3.72;;;4.10;99.90;;;;;;6286124;22;20087;-79
2023/01/27 16:15:08;;;;;;;5.88;3.78;;;4.10;99.90;;;;;;6250779;22;20402;-78
2023/01/27 16:17:55;;;;;;;7.47;4.10;;;4.10;99.90;;;;;;6276018;22;20012;-77
2023/01/27 16:20:26;;;;;;;5.82;3.70;;;4.10;99.90;;;;;;6275916;22;20054;-77
2023/01/27 16:23:00;;;;;;;6.13;3.88;;;4.10;99.90;;;;;;6277897;22;20011;-79
2023/01/27 16:25:41;;;;;;;5.85;4.05;;;4.10;99.90;;;;;;6277896;22;20008;-80
2023/01/27 16:28:18;;;;;;;7.10;4.10;;;4.10;99.90;;;;;;6277439;22;20106;-79
2023/01/27 16:30:59;;;;;;;6.68;4.25;;;4.00;99.90;;;;;;6276319;22;20334;-78
2023/01/27 16:33:37;;;;;;;8.90;4.82;;;4.00;99.90;;;;;;6275592;22;20023;-78
2023/01/27 16:36:15;;;;;;;6.43;3.92;;;4.00;99.90;;;;;;6250063;22;20020;-81
2023/01/27 16:38:42;;;;;;;4.95;3.42;;;4.00;99.90;;;;;;6275503;22;20429;-78
2023/01/27 16:41:20;;;;;;;5.35;3.58;;;4.00;99.90;;;;;;6275500;22;20011;-77
2023/01/27 16:43:49;;;;;;;4.70;3.22;;;4.00;99.90;;;;;;6276421;22;20015;-79
2023/01/27 16:46:45;;;;;;;6.13;3.83;;;4.00;99.90;;;;;;6250650;22;20346;-78
2023/01/27 16:49:16;;;;;;;5.75;3.42;;;4.00;99.90;;;;;;6263373;22;20015;-79
2023/01/27 16:51:42;;;;;;;5.18;3.28;;;4.00;99.90;;;;;;6275849;22;20065;-78
2023/01/27 16:54:23;;;;;;;5.68;3.80;;;4.00;99.90;;;;;;6275811;22;20020;-77
2023/01/27 16:56:52;;;;;;;5.18;3.28;;;3.90;99.90;;;;;;6275706;22;20012;-79
2023/01/27 16:59:22;;;;;;;4.60;3.20;;;4.00;99.90;;;;;;6275675;22;20035;-79
2023/01/27 17:01:50;;;;;;;4.22;2.88;;;3.90;99.90;;;;;;6275376;22;20016;-79
2023/01/27 17:04:24;;;;;;;6.20;3.40;;;3.90;99.90;;;;;;6277140;22;20095;-80
2023/01/27 17:06:53;;;;;;;5.15;3.08;;;3.90;99.90;;;;;;6249967;22;20019;-79
2023/01/27 17:09:28;;;;;;;4.15;2.90;;;3.90;99.90;;;;;;6275363;22;20014;-77
2023/01/27 17:11:54;;;;;;;4.82;3.25;;;3.90;99.90;;;;;;6277155;22;20528;-77
2023/01/27 17:14:31;;;;;;;5.22;3.05;;;3.90;99.90;;;;;;6275803;22;20016;-79
2023/01/27 17:17:00;;;;;;;5.30;3.40;;;3.90;99.90;;;;;;6275800;22;20016;-78
2023/01/27 17:19:34;;;;;;;6.10;3.50;;;3.90;99.90;;;;;;6277313;22;20012;-78
2023/01/27 17:22:10;;;;;;;4.32;3.03;;;3.80;99.90;;;;;;6275606;22;20011;-76
2023/01/27 17:24:39;;;;;;;;;;;3.90;99.90;;;;;;6276717;22;20027;-80
2023/01/27 17:27:26;;;;;;;5.07;3.50;;;3.80;99.90;;;;;;6277180;22;19950;-80
2023/01/27 17:30:12;;;;;;;6.60;4.05;;;3.80;99.90;;;;;;6276075;22;20062;-77
2023/01/27 17:32:39;;;;;;;;;;;3.80;99.90;;;;;;6249847;22;20012;-77
2023/01/27 17:35:18;;;;;;;7.05;4.25;;;3.80;99.90;;;;;;6277985;22;19915;-76
2023/01/27 17:37:43;;;;;;;6.20;4.18;;;3.80;99.90;;;;;;6277065;22;20011;-80